sensor_id;sensor_type;location;lat;lon;timestamp;temperature;humidity
65291;SHT30;51893;59.754;10.110;2023-05-10T00:00:46;9.80;66.45
65291;SHT30;51893;59.754;10.110;2023-05-10T00:03:14;9.77;66.41
65291;SHT30;51893;59.754;10.110;2023-05-10T00:05:43;9.74;66.58
65291;SHT30;51893;59.754;10.110;2023-05-10T00:08:11;9.69;66.82
65291;SHT30;51893;59.754;10.110;2023-05-10T00:10:39;9.70;66.98
65291;SHT30;51893;59.754;10.110;2023-05-10T00:13:08;9.67;67.13
65291;SHT30;51893;59.754;10.110;2023-05-10T00:15:37;9.70;67.15
65291;SHT30;51893;59.754;10.110;2023-05-10T00:18:05;9.70;67.13
65291;SHT30;51893;59.754;10.110;2023-05-10T00:20:34;9.75;67.11
65291;SHT30;51893;59.754;10.110;2023-05-10T00:23:02;9.73;67.17
65291;SHT30;51893;59.754;10.110;2023-05-10T00:25:30;9.81;67.08
65291;SHT30;51893;59.754;10.110;2023-05-10T00:27:58;9.82;67.10
65291;SHT30;51893;59.754;10.110;2023-05-10T00:30:29;9.84;66.98
65291;SHT30;51893;59.754;10.110;2023-05-10T00:32:57;9.84;67.12
65291;SHT30;51893;59.754;10.110;2023-05-10T00:35:25;9.87;67.30
65291;SHT30;51893;59.754;10.110;2023-05-10T00:37:54;9.84;67.60
65291;SHT30;51893;59.754;10.110;2023-05-10T00:40:22;9.85;67.53
65291;SHT30;51893;59.754;10.110;2023-05-10T00:42:50;9.77;67.62
65291;SHT30;51893;59.754;10.110;2023-05-10T00:45:18;9.69;67.83
65291;SHT30;51893;59.754;10.110;2023-05-10T00:47:47;9.62;68.04
65291;SHT30;51893;59.754;10.110;2023-05-10T00:50:15;9.54;68.27
65291;SHT30;51893;59.754;10.110;2023-05-10T00:52:44;9.52;68.28
65291;SHT30;51893;59.754;10.110;2023-05-10T00:55:12;9.52;68.24
65291;SHT30;51893;59.754;10.110;2023-05-10T00:57:40;9.53;68.31
65291;SHT30;51893;59.754;10.110;2023-05-10T01:00:09;9.49;68.44
65291;SHT30;51893;59.754;10.110;2023-05-10T01:02:39;9.52;68.47
65291;SHT30;51893;59.754;10.110;2023-05-10T01:05:09;9.51;68.54
65291;SHT30;51893;59.754;10.110;2023-05-10T01:07:38;9.48;68.59
65291;SHT30;51893;59.754;10.110;2023-05-10T01:10:08;9.45;68.55
65291;SHT30;51893;59.754;10.110;2023-05-10T01:12:39;9.39;68.75
65291;SHT30;51893;59.754;10.110;2023-05-10T01:15:12;9.35;68.85
65291;SHT30;51893;59.754;10.110;2023-05-10T01:17:44;9.40;68.64
65291;SHT30;51893;59.754;10.110;2023-05-10T01:20:17;9.36;68.78
65291;SHT30;51893;59.754;10.110;2023-05-10T01:22:54;9.28;69.06
65291;SHT30;51893;59.754;10.110;2023-05-10T01:25:42;9.22;69.28
65291;SHT30;51893;59.754;10.110;2023-05-10T01:32:09;9.32;69.01
65291;SHT30;51893;59.754;10.110;2023-05-10T01:35:06;9.32;69.11
65291;SHT30;51893;59.754;10.110;2023-05-10T01:38:07;9.31;69.25
65291;SHT30;51893;59.754;10.110;2023-05-10T01:46:42;9.20;70.78
65291;SHT30;51893;59.754;10.110;2023-05-10T01:49:47;9.15;71.00
65291;SHT30;51893;59.754;10.110;2023-05-10T01:52:16;9.16;70.97
65291;SHT30;51893;59.754;10.110;2023-05-10T01:55:00;9.18;70.81
65291;SHT30;51893;59.754;10.110;2023-05-10T01:57:33;9.20;70.74
65291;SHT30;51893;59.754;10.110;2023-05-10T02:00:04;9.13;70.84
65291;SHT30;51893;59.754;10.110;2023-05-10T02:02:39;9.13;70.72
65291;SHT30;51893;59.754;10.110;2023-05-10T02:05:10;9.16;70.43
65291;SHT30;51893;59.754;10.110;2023-05-10T02:07:42;9.22;70.30
65291;SHT30;51893;59.754;10.110;2023-05-10T02:10:12;9.26;70.14
65291;SHT30;51893;59.754;10.110;2023-05-10T02:12:45;9.26;70.13
65291;SHT30;51893;59.754;10.110;2023-05-10T02:15:17;9.28;70.03
65291;SHT30;51893;59.754;10.110;2023-05-10T02:17:50;9.35;69.91
65291;SHT30;51893;59.754;10.110;2023-05-10T02:20:22;9.38;69.82
65291;SHT30;51893;59.754;10.110;2023-05-10T02:22:53;9.39;69.86
65291;SHT30;51893;59.754;10.110;2023-05-10T02:25:24;9.37;70.08
65291;SHT30;51893;59.754;10.110;2023-05-10T02:27:55;9.35;70.09
65291;SHT30;51893;59.754;10.110;2023-05-10T02:30:25;9.29;70.26
65291;SHT30;51893;59.754;10.110;2023-05-10T02:32:55;9.25;70.20
65291;SHT30;51893;59.754;10.110;2023-05-10T02:35:27;9.23;70.18
65291;SHT30;51893;59.754;10.110;2023-05-10T02:37:59;9.12;70.34
65291;SHT30;51893;59.754;10.110;2023-05-10T02:40:29;9.03;70.62
65291;SHT30;51893;59.754;10.110;2023-05-10T02:42:59;9.02;70.67
65291;SHT30;51893;59.754;10.110;2023-05-10T02:45:31;9.05;70.62
65291;SHT30;51893;59.754;10.110;2023-05-10T02:48:02;9.09;70.70
65291;SHT30;51893;59.754;10.110;2023-05-10T02:50:32;9.11;70.73
65291;SHT30;51893;59.754;10.110;2023-05-10T02:53:15;9.17;70.73
65291;SHT30;51893;59.754;10.110;2023-05-10T02:55:52;9.23;70.70
65291;SHT30;51893;59.754;10.110;2023-05-10T02:58:26;9.24;70.72
65291;SHT30;51893;59.754;10.110;2023-05-10T03:00:56;9.26;70.67
65291;SHT30;51893;59.754;10.110;2023-05-10T03:03:24;9.23;70.88
65291;SHT30;51893;59.754;10.110;2023-05-10T03:05:52;9.22;70.76
65291;SHT30;51893;59.754;10.110;2023-05-10T03:08:23;9.20;70.81
65291;SHT30;51893;59.754;10.110;2023-05-10T03:11:03;9.18;70.94
65291;SHT30;51893;59.754;10.110;2023-05-10T03:17:35;9.21;70.87
65291;SHT30;51893;59.754;10.110;2023-05-10T03:20:26;9.23;71.03
65291;SHT30;51893;59.754;10.110;2023-05-10T03:23:13;9.25;70.91
65291;SHT30;51893;59.754;10.110;2023-05-10T03:25:46;9.22;70.84
65291;SHT30;51893;59.754;10.110;2023-05-10T03:28:16;9.13;71.02
65291;SHT30;51893;59.754;10.110;2023-05-10T03:30:48;9.12;71.06
65291;SHT30;51893;59.754;10.110;2023-05-10T03:33:19;9.11;71.00
65291;SHT30;51893;59.754;10.110;2023-05-10T03:35:48;9.05;71.13
65291;SHT30;51893;59.754;10.110;2023-05-10T03:38:16;8.92;71.38
65291;SHT30;51893;59.754;10.110;2023-05-10T03:40:44;8.92;71.38
65291;SHT30;51893;59.754;10.110;2023-05-10T03:43:12;8.88;71.41
65291;SHT30;51893;59.754;10.110;2023-05-10T03:45:40;8.89;71.25
65291;SHT30;51893;59.754;10.110;2023-05-10T03:48:08;8.79;71.56
65291;SHT30;51893;59.754;10.110;2023-05-10T03:50:36;8.72;71.98
65291;SHT30;51893;59.754;10.110;2023-05-10T03:53:04;8.67;72.17
65291;SHT30;51893;59.754;10.110;2023-05-10T03:55:32;8.68;72.24
65291;SHT30;51893;59.754;10.110;2023-05-10T03:58:03;8.69;72.30
65291;SHT30;51893;59.754;10.110;2023-05-10T04:00:31;8.68;72.26
65291;SHT30;51893;59.754;10.110;2023-05-10T04:03:00;8.64;72.43
65291;SHT30;51893;59.754;10.110;2023-05-10T04:05:28;8.56;72.67
65291;SHT30;51893;59.754;10.110;2023-05-10T04:07:57;8.51;72.76
65291;SHT30;51893;59.754;10.110;2023-05-10T04:10:26;8.46;73.02
65291;SHT30;51893;59.754;10.110;2023-05-10T04:12:57;8.46;73.17
65291;SHT30;51893;59.754;10.110;2023-05-10T04:15:25;8.49;73.19
65291;SHT30;51893;59.754;10.110;2023-05-10T04:17:55;8.57;72.99
65291;SHT30;51893;59.754;10.110;2023-05-10T04:20:23;8.63;72.99
65291;SHT30;51893;59.754;10.110;2023-05-10T04:22:53;8.72;72.92
65291;SHT30;51893;59.754;10.110;2023-05-10T04:25:21;8.73;73.11
65291;SHT30;51893;59.754;10.110;2023-05-10T04:27:50;8.77;73.14
65291;SHT30;51893;59.754;10.110;2023-05-10T04:30:17;8.80;73.14
65291;SHT30;51893;59.754;10.110;2023-05-10T04:32:45;8.85;73.09
65291;SHT30;51893;59.754;10.110;2023-05-10T04:35:13;8.88;73.13
65291;SHT30;51893;59.754;10.110;2023-05-10T04:37:42;8.92;73.17
65291;SHT30;51893;59.754;10.110;2023-05-10T04:40:11;8.95;73.23
65291;SHT30;51893;59.754;10.110;2023-05-10T04:42:39;9.04;72.97
65291;SHT30;51893;59.754;10.110;2023-05-10T04:45:09;9.15;72.59
65291;SHT30;51893;59.754;10.110;2023-05-10T04:47:37;9.23;72.59
65291;SHT30;51893;59.754;10.110;2023-05-10T04:50:06;9.29;72.54
65291;SHT30;51893;59.754;10.110;2023-05-10T04:52:35;9.35;72.47
65291;SHT30;51893;59.754;10.110;2023-05-10T04:55:04;9.45;72.22
65291;SHT30;51893;59.754;10.110;2023-05-10T04:57:34;9.51;72.05
65291;SHT30;51893;59.754;10.110;2023-05-10T05:00:04;9.58;72.21
65291;SHT30;51893;59.754;10.110;2023-05-10T05:02:33;9.60;72.74
65291;SHT30;51893;59.754;10.110;2023-05-10T05:05:03;9.61;72.98
65291;SHT30;51893;59.754;10.110;2023-05-10T05:07:32;9.63;73.12
65291;SHT30;51893;59.754;10.110;2023-05-10T05:10:00;9.72;72.92
65291;SHT30;51893;59.754;10.110;2023-05-10T05:12:28;9.77;73.30
65291;SHT30;51893;59.754;10.110;2023-05-10T05:14:56;9.85;73.13
65291;SHT30;51893;59.754;10.110;2023-05-10T05:17:25;9.95;72.81
65291;SHT30;51893;59.754;10.110;2023-05-10T05:19:54;10.08;72.48
65291;SHT30;51893;59.754;10.110;2023-05-10T05:22:22;10.13;72.06
65291;SHT30;51893;59.754;10.110;2023-05-10T05:24:57;10.18;71.39
65291;SHT30;51893;59.754;10.110;2023-05-10T05:27:30;10.26;71.20
65291;SHT30;51893;59.754;10.110;2023-05-10T05:29:59;10.31;70.93
65291;SHT30;51893;59.754;10.110;2023-05-10T05:32:27;10.39;70.58
65291;SHT30;51893;59.754;10.110;2023-05-10T05:34:55;10.45;70.25
65291;SHT30;51893;59.754;10.110;2023-05-10T05:37:23;10.49;70.10
65291;SHT30;51893;59.754;10.110;2023-05-10T05:39:52;10.51;69.90
65291;SHT30;51893;59.754;10.110;2023-05-10T05:42:19;10.51;69.71
65291;SHT30;51893;59.754;10.110;2023-05-10T05:44:48;10.54;69.48
65291;SHT30;51893;59.754;10.110;2023-05-10T05:47:16;10.59;69.41
65291;SHT30;51893;59.754;10.110;2023-05-10T05:49:45;10.63;68.91
65291;SHT30;51893;59.754;10.110;2023-05-10T05:52:14;10.69;68.66
65291;SHT30;51893;59.754;10.110;2023-05-10T05:54:42;10.74;68.33
65291;SHT30;51893;59.754;10.110;2023-05-10T05:57:10;10.79;67.89
65291;SHT30;51893;59.754;10.110;2023-05-10T05:59:39;10.83;67.61
65291;SHT30;51893;59.754;10.110;2023-05-10T06:02:10;10.89;67.24
65291;SHT30;51893;59.754;10.110;2023-05-10T06:04:39;10.97;66.93
65291;SHT30;51893;59.754;10.110;2023-05-10T06:07:11;11.03;66.19
65291;SHT30;51893;59.754;10.110;2023-05-10T06:09:39;11.09;65.48
65291;SHT30;51893;59.754;10.110;2023-05-10T06:12:07;11.15;64.97
65291;SHT30;51893;59.754;10.110;2023-05-10T06:14:34;11.21;64.45
65291;SHT30;51893;59.754;10.110;2023-05-10T06:17:03;11.28;64.18
65291;SHT30;51893;59.754;10.110;2023-05-10T06:19:32;11.36;63.83
65291;SHT30;51893;59.754;10.110;2023-05-10T06:22:00;11.40;63.13
65291;SHT30;51893;59.754;10.110;2023-05-10T06:24:28;11.47;62.67
65291;SHT30;51893;59.754;10.110;2023-05-10T06:26:56;11.52;62.29
65291;SHT30;51893;59.754;10.110;2023-05-10T06:29:27;11.58;61.90
65291;SHT30;51893;59.754;10.110;2023-05-10T06:31:56;11.63;61.75
65291;SHT30;51893;59.754;10.110;2023-05-10T06:34:25;11.71;61.45
65291;SHT30;51893;59.754;10.110;2023-05-10T06:36:54;11.75;61.08
65291;SHT30;51893;59.754;10.110;2023-05-10T06:39:22;11.79;60.80
65291;SHT30;51893;59.754;10.110;2023-05-10T06:41:50;11.84;60.47
65291;SHT30;51893;59.754;10.110;2023-05-10T06:44:21;11.89;60.15
65291;SHT30;51893;59.754;10.110;2023-05-10T06:46:49;11.95;60.04
65291;SHT30;51893;59.754;10.110;2023-05-10T06:49:17;12.00;59.81
65291;SHT30;51893;59.754;10.110;2023-05-10T06:51:45;12.05;59.58
65291;SHT30;51893;59.754;10.110;2023-05-10T06:54:16;12.07;59.16
65291;SHT30;51893;59.754;10.110;2023-05-10T06:56:44;12.11;58.82
65291;SHT30;51893;59.754;10.110;2023-05-10T06:59:11;12.18;58.83
65291;SHT30;51893;59.754;10.110;2023-05-10T07:01:43;12.22;58.57
65291;SHT30;51893;59.754;10.110;2023-05-10T07:04:12;12.28;58.41
65291;SHT30;51893;59.754;10.110;2023-05-10T07:06:40;12.33;58.14
65291;SHT30;51893;59.754;10.110;2023-05-10T07:09:08;12.40;58.09
65291;SHT30;51893;59.754;10.110;2023-05-10T07:11:36;12.47;57.90
65291;SHT30;51893;59.754;10.110;2023-05-10T07:14:05;12.47;57.44
65291;SHT30;51893;59.754;10.110;2023-05-10T07:16:33;12.50;57.19
65291;SHT30;51893;59.754;10.110;2023-05-10T07:19:01;12.53;57.19
65291;SHT30;51893;59.754;10.110;2023-05-10T07:21:30;12.61;57.30
65291;SHT30;51893;59.754;10.110;2023-05-10T07:23:59;12.69;57.14
65291;SHT30;51893;59.754;10.110;2023-05-10T07:26:27;12.79;56.59
65291;SHT30;51893;59.754;10.110;2023-05-10T07:28:59;12.89;56.49
65291;SHT30;51893;59.754;10.110;2023-05-10T07:31:26;12.99;56.18
65291;SHT30;51893;59.754;10.110;2023-05-10T07:33:57;13.08;56.13
65291;SHT30;51893;59.754;10.110;2023-05-10T07:36:25;13.18;56.02
65291;SHT30;51893;59.754;10.110;2023-05-10T07:38:53;13.30;55.54
65291;SHT30;51893;59.754;10.110;2023-05-10T07:41:22;13.39;54.67
65291;SHT30;51893;59.754;10.110;2023-05-10T07:43:50;13.48;54.31
65291;SHT30;51893;59.754;10.110;2023-05-10T07:46:19;13.58;54.09
65291;SHT30;51893;59.754;10.110;2023-05-10T07:48:47;13.68;53.90
65291;SHT30;51893;59.754;10.110;2023-05-10T07:51:21;13.74;52.95
65291;SHT30;51893;59.754;10.110;2023-05-10T07:53:50;13.82;53.02
65291;SHT30;51893;59.754;10.110;2023-05-10T07:59:01;13.92;52.66
65291;SHT30;51893;59.754;10.110;2023-05-10T08:01:36;13.98;52.51
65291;SHT30;51893;59.754;10.110;2023-05-10T08:04:04;14.05;52.31
65291;SHT30;51893;59.754;10.110;2023-05-10T08:06:32;14.12;52.11
65291;SHT30;51893;59.754;10.110;2023-05-10T08:09:04;14.17;51.38
65291;SHT30;51893;59.754;10.110;2023-05-10T08:11:32;14.24;51.52
65291;SHT30;51893;59.754;10.110;2023-05-10T08:14:01;14.33;51.61
65291;SHT30;51893;59.754;10.110;2023-05-10T08:16:29;14.36;50.95
65291;SHT30;51893;59.754;10.110;2023-05-10T08:18:58;14.39;50.94
65291;SHT30;51893;59.754;10.110;2023-05-10T08:21:26;14.46;51.19
65291;SHT30;51893;59.754;10.110;2023-05-10T08:23:56;14.55;51.16
65291;SHT30;51893;59.754;10.110;2023-05-10T08:26:26;14.63;51.26
65291;SHT30;51893;59.754;10.110;2023-05-10T08:28:54;14.69;50.29
65291;SHT30;51893;59.754;10.110;2023-05-10T08:31:23;14.68;50.01
65291;SHT30;51893;59.754;10.110;2023-05-10T08:33:51;14.74;49.87
65291;SHT30;51893;59.754;10.110;2023-05-10T08:36:22;14.77;49.64
65291;SHT30;51893;59.754;10.110;2023-05-10T08:38:51;14.84;50.20
65291;SHT30;51893;59.754;10.110;2023-05-10T08:41:21;14.94;49.91
65291;SHT30;51893;59.754;10.110;2023-05-10T08:43:53;14.99;49.37
65291;SHT30;51893;59.754;10.110;2023-05-10T08:46:23;15.06;49.73
65291;SHT30;51893;59.754;10.110;2023-05-10T08:48:56;15.16;49.68
65291;SHT30;51893;59.754;10.110;2023-05-10T08:51:32;15.26;49.89
65291;SHT30;51893;59.754;10.110;2023-05-10T08:54:10;15.40;49.30
65291;SHT30;51893;59.754;10.110;2023-05-10T08:56:38;15.56;49.37
65291;SHT30;51893;59.754;10.110;2023-05-10T08:59:06;15.69;49.04
65291;SHT30;51893;59.754;10.110;2023-05-10T09:01:35;15.87;49.26
65291;SHT30;51893;59.754;10.110;2023-05-10T09:04:04;16.00;48.47
65291;SHT30;51893;59.754;10.110;2023-05-10T09:06:32;16.10;48.29
65291;SHT30;51893;59.754;10.110;2023-05-10T09:09:01;16.20;48.08
65291;SHT30;51893;59.754;10.110;2023-05-10T09:11:31;16.21;46.84
65291;SHT30;51893;59.754;10.110;2023-05-10T09:14:01;16.18;47.21
65291;SHT30;51893;59.754;10.110;2023-05-10T09:16:34;16.23;46.98
65291;SHT30;51893;59.754;10.110;2023-05-10T09:19:02;16.31;46.97
65291;SHT30;51893;59.754;10.110;2023-05-10T09:21:31;16.44;46.71
65291;SHT30;51893;59.754;10.110;2023-05-10T09:24:02;16.54;46.88
65291;SHT30;51893;59.754;10.110;2023-05-10T09:26:35;16.67;46.82
65291;SHT30;51893;59.754;10.110;2023-05-10T09:29:17;16.84;46.87
65291;SHT30;51893;59.754;10.110;2023-05-10T09:31:49;16.97;45.83
65291;SHT30;51893;59.754;10.110;2023-05-10T09:34:28;17.01;45.36
65291;SHT30;51893;59.754;10.110;2023-05-10T09:36:59;17.14;45.98
65291;SHT30;51893;59.754;10.110;2023-05-10T09:39:31;17.33;45.62
65291;SHT30;51893;59.754;10.110;2023-05-10T09:42:08;17.58;45.12
65291;SHT30;51893;59.754;10.110;2023-05-10T09:44:38;17.77;44.36
65291;SHT30;51893;59.754;10.110;2023-05-10T09:47:08;17.77;43.79
65291;SHT30;51893;59.754;10.110;2023-05-10T09:49:38;17.83;43.10
65291;SHT30;51893;59.754;10.110;2023-05-10T09:52:06;17.74;42.71
65291;SHT30;51893;59.754;10.110;2023-05-10T09:54:38;17.72;42.95
65291;SHT30;51893;59.754;10.110;2023-05-10T09:57:21;17.78;43.27
65291;SHT30;51893;59.754;10.110;2023-05-10T09:59:51;17.90;43.13
65291;SHT30;51893;59.754;10.110;2023-05-10T10:02:27;17.97;42.99
65291;SHT30;51893;59.754;10.110;2023-05-10T10:04:57;18.03;42.57
65291;SHT30;51893;59.754;10.110;2023-05-10T10:07:29;18.00;42.31
65291;SHT30;51893;59.754;10.110;2023-05-10T10:09:57;18.06;42.28
65291;SHT30;51893;59.754;10.110;2023-05-10T10:12:27;18.02;42.15
65291;SHT30;51893;59.754;10.110;2023-05-10T10:14:55;17.98;41.92
65291;SHT30;51893;59.754;10.110;2023-05-10T10:17:26;17.99;42.40
65291;SHT30;51893;59.754;10.110;2023-05-10T10:19:55;18.12;42.28
65291;SHT30;51893;59.754;10.110;2023-05-10T10:22:26;18.18;42.31
65291;SHT30;51893;59.754;10.110;2023-05-10T10:24:54;18.23;42.31
65291;SHT30;51893;59.754;10.110;2023-05-10T10:36:08;18.45;42.01
65291;SHT30;51893;59.754;10.110;2023-05-10T10:41:36;18.52;41.91
65291;SHT30;51893;59.754;10.110;2023-05-10T10:47:09;18.65;41.88
65291;SHT30;51893;59.754;10.110;2023-05-10T10:49:49;18.73;42.05
65291;SHT30;51893;59.754;10.110;2023-05-10T10:52:36;18.84;42.12
65291;SHT30;51893;59.754;10.110;2023-05-10T10:57:57;19.04;41.47
65291;SHT30;51893;59.754;10.110;2023-05-10T11:00:36;19.09;41.41
65291;SHT30;51893;59.754;10.110;2023-05-10T11:03:10;19.11;41.10
65291;SHT30;51893;59.754;10.110;2023-05-10T11:05:46;19.11;41.05
65291;SHT30;51893;59.754;10.110;2023-05-10T11:08:27;19.15;41.51
65291;SHT30;51893;59.754;10.110;2023-05-10T11:11:04;19.20;40.51
65291;SHT30;51893;59.754;10.110;2023-05-10T11:13:41;19.13;40.47
65291;SHT30;51893;59.754;10.110;2023-05-10T11:16:14;19.20;41.17
65291;SHT30;51893;59.754;10.110;2023-05-10T11:19:02;19.33;40.71
65291;SHT30;51893;59.754;10.110;2023-05-10T11:21:48;19.41;40.63
65291;SHT30;51893;59.754;10.110;2023-05-10T11:24:19;19.53;40.51
65291;SHT30;51893;59.754;10.110;2023-05-10T11:26:50;19.66;40.71
65291;SHT30;51893;59.754;10.110;2023-05-10T11:29:19;19.78;40.67
65291;SHT30;51893;59.754;10.110;2023-05-10T11:31:49;19.90;40.27
65291;SHT30;51893;59.754;10.110;2023-05-10T11:36:58;20.07;39.64
65291;SHT30;51893;59.754;10.110;2023-05-10T11:39:31;20.13;39.62
65291;SHT30;51893;59.754;10.110;2023-05-10T11:42:01;20.17;39.40
65291;SHT30;51893;59.754;10.110;2023-05-10T11:44:32;20.18;39.20
65291;SHT30;51893;59.754;10.110;2023-05-10T11:47:01;20.15;39.25
65291;SHT30;51893;59.754;10.110;2023-05-10T11:49:32;20.22;39.47
65291;SHT30;51893;59.754;10.110;2023-05-10T11:52:03;20.35;39.42
65291;SHT30;51893;59.754;10.110;2023-05-10T11:54:35;20.44;39.27
65291;SHT30;51893;59.754;10.110;2023-05-10T11:57:05;20.39;38.52
65291;SHT30;51893;59.754;10.110;2023-05-10T11:59:33;20.31;38.73
65291;SHT30;51893;59.754;10.110;2023-05-10T12:02:02;20.35;39.00
65291;SHT30;51893;59.754;10.110;2023-05-10T12:04:32;20.44;38.86
65291;SHT30;51893;59.754;10.110;2023-05-10T12:07:00;20.44;38.50
65291;SHT30;51893;59.754;10.110;2023-05-10T12:09:29;20.44;38.66
65291;SHT30;51893;59.754;10.110;2023-05-10T12:12:20;20.52;38.77
65291;SHT30;51893;59.754;10.110;2023-05-10T12:14:48;20.55;38.45
65291;SHT30;51893;59.754;10.110;2023-05-10T12:17:18;20.53;38.69
65291;SHT30;51893;59.754;10.110;2023-05-10T12:19:47;20.58;38.65
65291;SHT30;51893;59.754;10.110;2023-05-10T12:22:15;20.62;38.59
65291;SHT30;51893;59.754;10.110;2023-05-10T12:24:50;20.69;38.79
65291;SHT30;51893;59.754;10.110;2023-05-10T12:27:18;20.76;38.40
65291;SHT30;51893;59.754;10.110;2023-05-10T12:29:46;20.77;38.22
65291;SHT30;51893;59.754;10.110;2023-05-10T12:32:16;20.82;38.52
65291;SHT30;51893;59.754;10.110;2023-05-10T12:34:46;20.86;37.81
65291;SHT30;51893;59.754;10.110;2023-05-10T12:37:17;20.84;37.79
65291;SHT30;51893;59.754;10.110;2023-05-10T12:39:46;20.92;37.56
65291;SHT30;51893;59.754;10.110;2023-05-10T12:42:18;20.88;36.75
65291;SHT30;51893;59.754;10.110;2023-05-10T12:44:46;20.91;37.16
65291;SHT30;51893;59.754;10.110;2023-05-10T12:47:14;21.00;36.85
65291;SHT30;51893;59.754;10.110;2023-05-10T12:49:42;20.96;37.09
65291;SHT30;51893;59.754;10.110;2023-05-10T12:52:10;20.98;37.18
65291;SHT30;51893;59.754;10.110;2023-05-10T12:54:38;21.05;37.61
65291;SHT30;51893;59.754;10.110;2023-05-10T12:57:06;21.18;37.17
65291;SHT30;51893;59.754;10.110;2023-05-10T12:59:36;21.21;36.94
65291;SHT30;51893;59.754;10.110;2023-05-10T13:02:05;21.25;37.44
65291;SHT30;51893;59.754;10.110;2023-05-10T13:04:34;21.33;37.03
65291;SHT30;51893;59.754;10.110;2023-05-10T13:07:06;21.31;36.86
65291;SHT30;51893;59.754;10.110;2023-05-10T13:09:35;21.25;35.79
65291;SHT30;51893;59.754;10.110;2023-05-10T13:12:03;21.09;36.14
65291;SHT30;51893;59.754;10.110;2023-05-10T13:14:36;21.09;36.51
65291;SHT30;51893;59.754;10.110;2023-05-10T13:17:04;21.02;36.25
65291;SHT30;51893;59.754;10.110;2023-05-10T13:19:32;21.04;36.60
65291;SHT30;51893;59.754;10.110;2023-05-10T13:22:01;21.09;36.54
65291;SHT30;51893;59.754;10.110;2023-05-10T13:24:29;21.15;36.03
65291;SHT30;51893;59.754;10.110;2023-05-10T13:27:00;21.10;35.87
65291;SHT30;51893;59.754;10.110;2023-05-10T13:29:29;21.10;36.04
65291;SHT30;51893;59.754;10.110;2023-05-10T13:31:58;21.05;35.70
65291;SHT30;51893;59.754;10.110;2023-05-10T13:34:26;20.98;35.79
65291;SHT30;51893;59.754;10.110;2023-05-10T13:36:54;21.00;36.02
65291;SHT30;51893;59.754;10.110;2023-05-10T13:39:23;21.00;35.96
65291;SHT30;51893;59.754;10.110;2023-05-10T13:41:51;21.01;36.10
65291;SHT30;51893;59.754;10.110;2023-05-10T13:44:22;21.16;36.42
65291;SHT30;51893;59.754;10.110;2023-05-10T13:46:50;21.19;35.94
65291;SHT30;51893;59.754;10.110;2023-05-10T13:49:18;21.10;35.63
65291;SHT30;51893;59.754;10.110;2023-05-10T13:51:48;21.12;35.85
65291;SHT30;51893;59.754;10.110;2023-05-10T13:54:19;21.12;36.25
65291;SHT30;51893;59.754;10.110;2023-05-10T13:56:47;21.15;35.97
65291;SHT30;51893;59.754;10.110;2023-05-10T13:59:18;20.99;35.91
65291;SHT30;51893;59.754;10.110;2023-05-10T14:01:48;21.07;36.15
65291;SHT30;51893;59.754;10.110;2023-05-10T14:04:17;21.01;36.20
65291;SHT30;51893;59.754;10.110;2023-05-10T14:06:45;20.85;36.10
65291;SHT30;51893;59.754;10.110;2023-05-10T14:09:14;20.77;36.35
65291;SHT30;51893;59.754;10.110;2023-05-10T14:11:42;20.89;37.18
65291;SHT30;51893;59.754;10.110;2023-05-10T14:14:11;20.94;36.87
65291;SHT30;51893;59.754;10.110;2023-05-10T14:16:42;20.97;36.95
65291;SHT30;51893;59.754;10.110;2023-05-10T14:19:11;20.99;36.49
65291;SHT30;51893;59.754;10.110;2023-05-10T14:21:41;21.10;35.91
65291;SHT30;51893;59.754;10.110;2023-05-10T14:24:10;21.24;36.10
65291;SHT30;51893;59.754;10.110;2023-05-10T14:26:40;21.48;36.11
65291;SHT30;51893;59.754;10.110;2023-05-10T14:29:09;21.69;35.59
65291;SHT30;51893;59.754;10.110;2023-05-10T14:31:39;21.93;35.55
65291;SHT30;51893;59.754;10.110;2023-05-10T14:34:08;22.11;35.48
65291;SHT30;51893;59.754;10.110;2023-05-10T14:36:36;22.24;35.71
65291;SHT30;51893;59.754;10.110;2023-05-10T14:39:04;22.37;35.31
65291;SHT30;51893;59.754;10.110;2023-05-10T14:41:34;22.45;35.35
65291;SHT30;51893;59.754;10.110;2023-05-10T14:44:03;22.64;35.66
65291;SHT30;51893;59.754;10.110;2023-05-10T14:46:31;22.65;34.00
65291;SHT30;51893;59.754;10.110;2023-05-10T14:48:59;22.55;33.82
65291;SHT30;51893;59.754;10.110;2023-05-10T14:51:27;22.28;32.36
65291;SHT30;51893;59.754;10.110;2023-05-10T14:53:58;21.81;32.76
65291;SHT30;51893;59.754;10.110;2023-05-10T14:56:26;21.70;33.14
65291;SHT30;51893;59.754;10.110;2023-05-10T14:58:55;21.77;33.56
65291;SHT30;51893;59.754;10.110;2023-05-10T15:01:24;21.88;33.86
65291;SHT30;51893;59.754;10.110;2023-05-10T15:03:53;21.89;33.81
65291;SHT30;51893;59.754;10.110;2023-05-10T15:06:30;21.91;33.80
65291;SHT30;51893;59.754;10.110;2023-05-10T15:09:02;22.05;33.75
65291;SHT30;51893;59.754;10.110;2023-05-10T15:11:32;22.08;33.35
65291;SHT30;51893;59.754;10.110;2023-05-10T15:14:00;22.08;33.50
65291;SHT30;51893;59.754;10.110;2023-05-10T15:16:29;22.12;33.46
65291;SHT30;51893;59.754;10.110;2023-05-10T15:19:01;22.21;33.45
65291;SHT30;51893;59.754;10.110;2023-05-10T15:21:30;22.31;33.28
65291;SHT30;51893;59.754;10.110;2023-05-10T15:24:02;22.27;32.88
65291;SHT30;51893;59.754;10.110;2023-05-10T15:26:30;22.36;33.35
65291;SHT30;51893;59.754;10.110;2023-05-10T15:28:59;22.38;33.44
65291;SHT30;51893;59.754;10.110;2023-05-10T15:31:27;22.28;32.79
65291;SHT30;51893;59.754;10.110;2023-05-10T15:33:58;22.27;32.74
65291;SHT30;51893;59.754;10.110;2023-05-10T15:36:26;22.28;33.04
65291;SHT30;51893;59.754;10.110;2023-05-10T15:38:55;22.37;33.24
65291;SHT30;51893;59.754;10.110;2023-05-10T15:41:23;22.43;33.01
65291;SHT30;51893;59.754;10.110;2023-05-10T15:43:53;22.56;33.61
65291;SHT30;51893;59.754;10.110;2023-05-10T15:46:24;22.72;33.31
65291;SHT30;51893;59.754;10.110;2023-05-10T15:48:53;22.75;33.11
65291;SHT30;51893;59.754;10.110;2023-05-10T15:51:20;22.67;32.97
65291;SHT30;51893;59.754;10.110;2023-05-10T15:53:49;22.69;33.54
65291;SHT30;51893;59.754;10.110;2023-05-10T15:56:34;22.80;33.43
65291;SHT30;51893;59.754;10.110;2023-05-10T15:59:02;22.93;33.54
65291;SHT30;51893;59.754;10.110;2023-05-10T16:01:32;23.00;33.53
65291;SHT30;51893;59.754;10.110;2023-05-10T16:04:02;22.99;33.75
65291;SHT30;51893;59.754;10.110;2023-05-10T16:06:30;22.95;33.63
65291;SHT30;51893;59.754;10.110;2023-05-10T16:08:59;22.89;33.61
65291;SHT30;51893;59.754;10.110;2023-05-10T16:11:27;22.79;33.61
65291;SHT30;51893;59.754;10.110;2023-05-10T16:13:56;22.75;33.83
65291;SHT30;51893;59.754;10.110;2023-05-10T16:16:24;22.79;33.94